Time;durP1;ratioP1;P1;durP2;ratioP2;P2;SDS_P1;SDS_P2;PMS_P1;PMS_P2;Temp;Humidity;BMP_temperature;BMP_pressure;BME280_temperature;BME280_humidity;BME280_pressure;Samples;Min_cycle;Max_cycle;Signal;HPM_P1;HPM_P2
2023/05/02 00:04:28;;;;;;;3.00;2.20;;;14.30;99.90;;;;;;10512669;28;20221;-71
2023/05/02 00:09:29;;;;;;;2.57;2.37;;;14.30;99.90;;;;;;10497780;28;20219;-70
2023/05/02 00:14:29;;;;;;;2.80;2.60;;;14.30;99.90;;;;;;10501785;28;20704;-68
2023/05/02 00:19:30;;;;;;;2.60;2.40;;;14.20;99.90;;;;;;10480484;28;20215;-68
2023/05/02 00:24:31;;;;;;;3.33;2.70;;;14.20;99.90;;;;;;10508154;28;20222;-69
2023/05/02 00:29:32;;;;;;;2.70;2.50;;;14.00;99.90;;;;;;10512847;28;20218;-68
2023/05/02 00:34:33;;;;;;;3.00;2.80;;;13.90;99.90;;;;;;10519140;28;20218;-69
2023/05/02 00:39:34;;;;;;;3.10;2.80;;;13.70;99.90;;;;;;10509278;28;20219;-70
2023/05/02 00:44:35;;;;;;;3.47;3.10;;;13.50;99.90;;;;;;10520054;28;20307;-68
2023/05/02 00:49:36;;;;;;;3.33;3.03;;;13.30;99.90;;;;;;10508483;28;20316;-68
2023/05/02 00:54:38;;;;;;;3.70;3.40;;;13.00;99.90;;;;;;10515608;28;20321;-68
2023/05/02 00:59:39;;;;;;;5.43;3.00;;;12.90;99.90;;;;;;10523927;28;20222;-69
2023/05/02 01:04:54;;;;;;;3.47;3.17;;;12.60;99.90;;;;;;10514892;28;20612;-68
2023/05/02 01:10:20;;;;;;;4.73;3.90;;;12.40;99.90;;;;;;10522643;28;20225;-70
2023/05/02 01:15:22;;;;;;;4.97;3.63;;;12.30;99.90;;;;;;10526422;28;20242;-70
2023/05/02 01:20:26;;;;;;;4.43;4.03;;;12.20;99.90;;;;;;10505545;28;20199;-71
2023/05/02 01:25:35;;;;;;;5.70;4.47;;;12.10;99.90;;;;;;10517102;28;20248;-72
2023/05/02 01:30:39;;;;;;;4.50;4.10;;;12.00;99.90;;;;;;10520456;28;20732;-72
2023/05/02 01:35:42;;;;;;;4.70;4.30;;;12.00;99.90;;;;;;10526624;28;20237;-69
2023/05/02 01:40:45;;;;;;;4.90;4.50;;;11.80;99.90;;;;;;10534037;28;20265;-70
2023/05/02 01:45:49;;;;;;;6.13;5.53;;;11.80;99.90;;;;;;10518292;28;20234;-69
2023/05/02 01:50:51;;;;;;;6.30;5.20;;;11.60;99.90;;;;;;10514735;28;20305;-72
2023/05/02 01:55:53;;;;;;;6.90;5.43;;;11.60;99.90;;;;;;10511700;28;20219;-68
2023/05/02 02:00:58;;;;;;;5.30;4.80;;;11.60;99.90;;;;;;10521021;28;20234;-69
2023/05/02 02:06:02;;;;;;;6.70;4.57;;;11.50;99.90;;;;;;10516903;28;20618;-69
2023/05/02 02:11:10;;;;;;;5.30;4.80;;;11.40;99.90;;;;;;10495192;28;20231;-67
2023/05/02 02:16:17;;;;;;;5.37;4.87;;;11.30;99.90;;;;;;10499023;28;20227;-67
2023/05/02 02:21:20;;;;;;;12.23;5.23;;;11.20;99.90;;;;;;10515491;28;20243;-68
2023/05/02 02:26:22;;;;;;;7.37;5.77;;;11.20;99.90;;;;;;10499853;28;20334;-68
2023/05/02 02:31:24;;;;;;;6.40;5.63;;;11.10;99.90;;;;;;10522585;28;20218;-68
2023/05/02 02:36:59;;;;;;;6.77;5.83;;;11.10;99.90;;;;;;10504515;28;20222;-69
2023/05/02 02:42:13;;;;;;;6.67;6.07;;;11.00;99.90;;;;;;10507247;28;20587;-68
2023/05/02 02:47:25;;;;;;;6.20;5.57;;;10.90;99.90;;;;;;10517035;28;20230;-70
2023/05/02 02:52:43;;;;;;;7.50;6.43;;;10.80;99.90;;;;;;10515114;28;20550;-68
2023/05/02 02:58:00;;;;;;;7.40;6.40;;;10.80;99.90;;;;;;10511768;28;20337;-69
2023/05/02 03:03:01;;;;;;;7.83;6.77;;;10.70;99.90;;;;;;10508846;28;20226;-68
2023/05/02 03:08:02;;;;;;;7.70;6.60;;;10.70;99.90;;;;;;10496344;28;20218;-70
2023/05/02 03:13:03;;;;;;;7.90;7.10;;;10.70;99.90;;;;;;10503078;28;20218;-70
2023/05/02 03:18:03;;;;;;;9.13;8.13;;;10.60;99.90;;;;;;10496846;28;20302;-70
2023/05/02 03:23:04;;;;;;;8.77;7.87;;;10.50;99.90;;;;;;10520466;28;20257;-69
2023/05/02 03:28:04;;;;;;;10.70;8.90;;;10.50;99.90;;;;;;10523672;28;20214;-70
2023/05/02 03:33:08;;;;;;;10.13;9.17;;;10.40;99.90;;;;;;10498508;28;20268;-70
2023/05/02 03:38:09;;;;;;;10.10;9.17;;;10.40;99.90;;;;;;10520739;28;20207;-69
2023/05/02 03:43:10;;;;;;;9.87;8.87;;;10.50;99.90;;;;;;10504206;28;20590;-71
2023/05/02 03:48:11;;;;;;;9.63;8.73;;;10.60;99.90;;;;;;10512632;28;20210;-70
2023/05/02 03:53:11;;;;;;;10.10;8.87;;;10.70;99.90;;;;;;10503959;28;20223;-69
2023/05/02 03:58:12;;;;;;;9.67;8.67;;;10.90;99.90;;;;;;10478644;28;20705;-70
2023/05/02 04:03:13;;;;;;;8.83;7.93;;;11.10;99.90;;;;;;10499230;28;20230;-73
2023/05/02 04:08:13;;;;;;;8.90;8.10;;;11.20;99.90;;;;;;10504137;28;20271;-70
2023/05/02 04:13:14;;;;;;;10.77;9.67;;;11.30;99.90;;;;;;10498764;28;20223;-68
2023/05/02 04:18:14;;;;;;;13.70;11.23;;;11.40;99.90;;;;;;10527883;28;20233;-70
2023/05/02 04:23:16;;;;;;;12.00;10.80;;;11.40;99.90;;;;;;10510907;28;20592;-74
2023/05/02 04:28:17;;;;;;;13.27;11.97;;;11.50;99.90;;;;;;10508862;28;20276;-74
2023/05/02 04:33:17;;;;;;;13.87;12.27;;;11.50;99.90;;;;;;10504779;28;20238;-69
2023/05/02 04:38:18;;;;;;;13.97;12.57;;;11.40;99.90;;;;;;10524610;28;20226;-68
2023/05/02 04:43:19;;;;;;;14.60;13.20;;;11.40;99.90;;;;;;10515147;28;20636;-68
2023/05/02 04:48:20;;;;;;;15.33;13.73;;;11.40;99.90;;;;;;10529721;28;20214;-67
2023/05/02 04:53:22;;;;;;;14.10;12.60;;;11.60;99.90;;;;;;10523322;28;20206;-68
2023/05/02 04:58:22;;;;;;;15.07;13.60;;;11.80;99.90;;;;;;10528929;28;20234;-67
2023/05/02 05:03:28;;;;;;;14.57;13.07;;;11.90;99.90;;;;;;10527604;28;20757;-69
2023/05/02 05:08:29;;;;;;;15.90;14.37;;;12.00;99.90;;;;;;10511328;28;20268;-69
2023/05/02 05:13:30;;;;;;;17.40;15.60;;;12.30;99.90;;;;;;10522648;28;20251;-73
2023/05/02 05:18:32;;;;;;;19.53;16.17;;;12.60;99.90;;;;;;10509787;28;20242;-72
2023/05/02 05:23:34;;;;;;;20.83;18.67;;;13.00;99.90;;;;;;10526442;28;20233;-74
2023/05/02 05:28:34;;;;;;;21.37;19.27;;;13.00;99.90;;;;;;10517333;28;20586;-72
2023/05/02 05:33:37;;;;;;;23.53;21.27;;;13.00;99.90;;;;;;10505248;28;20233;-75
2023/05/02 05:38:37;;;;;;;28.13;25.20;;;13.00;99.90;;;;;;10524377;28;20222;-74
2023/05/02 05:43:38;;;;;;;28.20;24.97;;;13.10;99.90;;;;;;10514282;28;20222;-73
2023/05/02 05:48:39;;;;;;;25.23;22.63;;;13.20;99.90;;;;;;10505717;28;20651;-73
2023/05/02 05:53:39;;;;;;;25.47;22.77;;;13.40;99.90;;;;;;10526714;28;20248;-69
2023/05/02 05:58:41;;;;;;;33.50;30.10;;;13.60;99.90;;;;;;10516724;28;20287;-77
2023/05/02 06:03:48;;;;;;;32.70;29.33;;;13.70;99.90;;;;;;10498172;28;20253;-78
2023/05/02 06:08:48;;;;;;;35.43;31.47;;;13.80;99.90;;;;;;10510470;28;20307;-77
2023/05/02 06:13:51;;;;;;;37.00;33.07;;;13.90;99.90;;;;;;10501635;28;20316;-78
2023/05/02 06:18:52;;;;;;;36.23;32.43;;;14.00;99.90;;;;;;10493872;28;20226;-75
2023/05/02 06:23:53;;;;;;;34.07;30.53;;;14.20;99.90;;;;;;10512609;28;20727;-76
2023/05/02 06:28:57;;;;;;;34.33;30.57;;;14.60;99.90;;;;;;10504965;28;20213;-75
2023/05/02 06:33:58;;;;;;;32.73;29.23;;;15.30;99.90;;;;;;10509621;28;20225;-76
2023/05/02 06:38:58;;;;;;;32.67;29.27;;;15.80;99.90;;;;;;10507824;28;20636;-76
2023/05/02 06:43:59;;;;;;;31.27;28.00;;;16.10;99.90;;;;;;10509714;28;20231;-75
2023/05/02 06:49:00;;;;;;;35.40;29.93;;;16.40;99.90;;;;;;10520205;28;20242;-75
2023/05/02 06:54:01;;;;;;;33.77;30.17;;;16.40;99.90;;;;;;10496264;28;20599;-73
2023/05/02 06:59:01;;;;;;;36.10;31.03;;;16.30;99.90;;;;;;10494569;28;20557;-74
2023/05/02 07:04:04;;;;;;;29.33;26.23;;;16.50;99.90;;;;;;10493112;28;20237;-71
2023/05/02 07:09:05;;;;;;;27.27;24.57;;;16.90;99.90;;;;;;10521574;28;20229;-71
2023/05/02 07:14:06;;;;;;;33.40;29.83;;;17.80;99.90;;;;;;10525274;28;20226;-72
2023/05/02 07:19:06;;;;;;;30.27;27.10;;;18.20;99.90;;;;;;10499373;28;20234;-71
2023/05/02 07:24:07;;;;;;;32.67;29.13;;;18.30;99.90;;;;;;10535803;28;20225;-72
2023/05/02 07:29:11;;;;;;;29.60;26.47;;;18.20;99.90;;;;;;10497285;28;20218;-71
2023/05/02 07:34:12;;;;;;;28.00;25.13;;;18.10;99.90;;;;;;10501134;28;20337;-72
2023/05/02 07:39:13;;;;;;;27.40;24.50;;;17.90;99.90;;;;;;10500218;28;20604;-72
2023/05/02 07:44:14;;;;;;;25.20;21.90;;;17.80;99.90;;;;;;10511150;28;20234;-73
2023/05/02 07:49:14;;;;;;;23.60;21.20;;;18.00;99.90;;;;;;10523131;28;20214;-71
2023/05/02 07:54:19;;;;;;;25.53;22.10;;;18.10;99.90;;;;;;10522939;28;20249;-72
2023/05/02 07:59:20;;;;;;;23.17;20.40;;;17.90;99.90;;;;;;10523697;28;20230;-72
2023/05/02 08:04:21;;;;;;;26.27;21.90;;;17.80;99.90;;;;;;10492637;28;20283;-71
2023/05/02 08:09:21;;;;;;;22.93;20.43;;;17.70;99.90;;;;;;10519877;28;20209;-72
2023/05/02 08:14:22;;;;;;;20.43;18.37;;;18.50;99.90;;;;;;10524241;28;20229;-71
2023/05/02 08:19:25;;;;;;;20.60;15.50;;;19.70;99.90;;;;;;10506528;28;20222;-71
2023/05/02 08:24:26;;;;;;;18.27;15.87;;;19.20;99.90;;;;;;10513567;28;20223;-72
2023/05/02 08:29:27;;;;;;;16.80;15.13;;;18.30;99.90;;;;;;10521454;28;20222;-72
2023/05/02 08:34:28;;;;;;;18.17;16.13;;;17.90;99.90;;;;;;10499513;28;20218;-73
2023/05/02 08:39:32;;;;;;;16.43;14.73;;;17.30;99.90;;;;;;10500929;28;20227;-73
2023/05/02 08:44:32;;;;;;;18.20;14.87;;;16.80;99.90;;;;;;10494258;28;20225;-73
2023/05/02 08:49:34;;;;;;;15.80;13.50;;;16.40;99.90;;;;;;10502157;28;20217;-73
2023/05/02 08:54:37;;;;;;;15.83;13.67;;;16.20;99.90;;;;;;10499478;28;20633;-74
2023/05/02 08:59:38;;;;;;;19.03;15.33;;;16.20;99.90;;;;;;10499495;28;20308;-73
2023/05/02 09:04:41;;;;;;;21.20;16.53;;;16.20;99.90;;;;;;10524254;28;20226;-73
2023/05/02 09:09:42;;;;;;;20.63;15.53;;;16.50;99.90;;;;;;10498849;28;20226;-73
2023/05/02 09:14:43;;;;;;;18.87;15.03;;;17.20;99.90;;;;;;10517638;28;20226;-73
2023/05/02 09:19:44;;;;;;;16.47;13.67;;;18.20;99.90;;;;;;10527399;28;20305;-73
2023/05/02 09:24:53;;;;;;;15.33;12.80;;;19.10;99.90;;;;;;10502980;28;20231;-72
2023/05/02 09:30:19;;;;;;;15.77;13.07;;;20.00;99.90;;;;;;10500685;28;20238;-72
2023/05/02 09:35:23;;;;;;;16.90;13.37;;;20.60;97.50;;;;;;10517768;28;20223;-71
2023/05/02 09:40:24;;;;;;;16.57;12.93;;;20.30;96.40;;;;;;10498002;28;20661;-76
2023/05/02 09:45:25;;;;;;;23.87;13.27;;;20.50;95.40;;;;;;10513061;28;20303;-73
2023/05/02 09:50:36;;;;;;;17.57;13.50;;;20.40;95.30;;;;;;10509205;28;20701;-72
2023/05/02 09:55:39;;;;;;;14.90;12.27;;;20.00;95.30;;;;;;10499650;28;20238;-73
2023/05/02 10:00:43;;;;;;;17.07;12.90;;;20.00;95.40;;;;;;10494457;28;20251;-72
2023/05/02 10:05:49;;;;;;;16.20;12.27;;;20.80;94.30;;;;;;10494275;28;20260;-72
2023/05/02 10:11:02;;;;;;;14.60;11.37;;;21.60;91.90;;;;;;10512489;28;20227;-72
2023/05/02 10:16:05;;;;;;;12.50;10.77;;;21.50;90.90;;;;;;10502927;28;20219;-73
2023/05/02 10:21:10;;;;;;;15.00;13.00;;;22.10;89.20;;;;;;10500639;28;20268;-72
2023/05/02 10:26:15;;;;;;;14.43;11.63;;;22.80;82.90;;;;;;10494340;28;20230;-73
2023/05/02 10:31:17;;;;;;;14.00;11.83;;;23.90;78.00;;;;;;10495880;28;20646;-73
2023/05/02 10:36:22;;;;;;;13.13;10.93;;;23.90;75.50;;;;;;10522109;28;20877;-75
2023/05/02 10:41:26;;;;;;;13.43;11.70;;;23.50;74.70;;;;;;10512439;28;20698;-74
2023/05/02 10:46:33;;;;;;;13.20;11.73;;;22.40;78.10;;;;;;10505218;28;20288;-73
2023/05/02 10:51:35;;;;;;;13.40;11.60;;;21.50;81.40;;;;;;10511245;28;20215;-74
2023/05/02 10:57:02;;;;;;;13.33;11.00;;;21.10;81.90;;;;;;10524043;28;20389;-75
2023/05/02 11:02:26;;;;;;;15.27;11.27;;;21.40;82.60;;;;;;10505697;28;20566;-76
2023/05/02 11:07:28;;;;;;;10.13;8.07;;;22.20;79.60;;;;;;10504189;28;20225;-73
2023/05/02 11:12:46;;;;;;;10.57;7.97;;;21.30;79.70;;;;;;10502957;28;20308;-73
2023/05/02 11:18:02;;;;;;;9.80;7.77;;;20.30;82.10;;;;;;10506212;28;20225;-74
2023/05/02 11:23:15;;;;;;;8.53;7.57;;;20.00;83.40;;;;;;10474066;28;20267;-74
2023/05/02 11:28:48;;;;;;;8.83;6.57;;;22.70;78.60;;;;;;10484100;28;20830;-76
2023/05/02 11:33:59;;;;;;;8.97;7.63;;;27.20;59.60;;;;;;10455726;28;20574;-73
2023/05/02 11:39:02;;;;;;;10.67;7.77;;;27.70;55.90;;;;;;10500210;28;20220;-76
2023/05/02 11:44:03;;;;;;;7.70;6.23;;;27.80;52.90;;;;;;10510405;28;20222;-76
2023/05/02 11:49:04;;;;;;;6.73;5.90;;;25.90;56.10;;;;;;10510301;28;20676;-75
2023/05/02 11:54:06;;;;;;;8.93;6.70;;;23.90;60.20;;;;;;10507971;28;20250;-73
2023/05/02 11:59:07;;;;;;;7.37;6.57;;;22.60;65.60;;;;;;10488074;28;20211;-73
2023/05/02 12:04:10;;;;;;;8.20;5.80;;;21.70;67.80;;;;;;10516802;28;20234;-73
2023/05/02 12:09:19;;;;;;;6.73;5.00;;;21.20;71.70;;;;;;10498922;28;20257;-73
2023/05/02 12:14:29;;;;;;;12.13;5.47;;;20.80;69.00;;;;;;10527122;28;20210;-71
2023/05/02 12:19:30;;;;;;;4.40;3.93;;;20.20;69.00;;;;;;10521995;28;20717;-73
2023/05/02 12:24:30;;;;;;;5.20;3.87;;;20.20;72.60;;;;;;10493739;28;20226;-73
2023/05/02 12:29:40;;;;;;;4.67;3.80;;;20.40;70.30;;;;;;10519476;28;20278;-71
2023/05/02 12:34:41;;;;;;;3.27;2.97;;;20.50;69.10;;;;;;10482581;28;20312;-71
2023/05/02 12:39:42;;;;;;;4.93;3.33;;;20.80;68.80;;;;;;10506732;28;20309;-72
2023/05/02 12:44:45;;;;;;;3.60;3.10;;;20.80;66.80;;;;;;10515451;28;20279;-72
2023/05/02 12:49:55;;;;;;;7.30;3.50;;;20.90;68.10;;;;;;10530896;28;20213;-71
2023/05/02 12:55:17;;;;;;;4.97;3.53;;;20.90;68.90;;;;;;10504567;28;20701;-70
2023/05/02 13:00:18;;;;;;;3.47;3.17;;;20.60;67.90;;;;;;10476243;28;20241;-72
2023/05/02 13:05:19;;;;;;;7.93;6.07;;;20.30;69.60;;;;;;10466636;28;20226;-72
2023/05/02 13:10:20;;;;;;;8.87;7.00;;;19.90;75.80;;;;;;10478636;28;20740;-72
2023/05/02 13:15:21;;;;;;;9.80;7.60;;;19.30;80.80;;;;;;10473864;28;20528;-71
2023/05/02 13:20:22;;;;;;;11.07;7.37;;;18.70;82.60;;;;;;10476080;28;20650;-73
2023/05/02 13:25:23;;;;;;;9.17;6.57;;;18.40;83.10;;;;;;10481863;28;20576;-73
2023/05/02 13:30:23;;;;;;;9.53;7.00;;;18.20;84.10;;;;;;10466291;28;20193;-73
2023/05/02 13:35:24;;;;;;;9.63;5.90;;;18.20;83.10;;;;;;10470930;28;25499;-72
2023/05/02 13:40:25;;;;;;;5.33;4.17;;;18.30;81.00;;;;;;10472151;28;20226;-72
2023/05/02 13:45:25;;;;;;;5.30;3.87;;;18.60;82.10;;;;;;10487079;28;20599;-71
2023/05/02 13:50:26;;;;;;;4.73;3.47;;;18.90;78.80;;;;;;10470157;28;20303;-70
2023/05/02 13:55:27;;;;;;;6.07;4.60;;;18.90;81.30;;;;;;10483082;28;20331;-71
2023/05/02 14:00:28;;;;;;;4.03;3.63;;;18.80;81.60;;;;;;10479598;28;20226;-70
2023/05/02 14:05:28;;;;;;;4.40;3.60;;;19.10;81.20;;;;;;10478813;28;20605;-71
2023/05/02 14:10:29;;;;;;;9.27;3.57;;;19.40;80.30;;;;;;10478434;28;20965;-71
2023/05/02 14:15:30;;;;;;;4.87;4.00;;;19.40;80.30;;;;;;10474173;28;20276;-69
2023/05/02 14:20:31;;;;;;;3.77;3.17;;;19.20;82.40;;;;;;10472936;28;20234;-71
2023/05/02 14:25:31;;;;;;;3.80;3.33;;;18.90;84.10;;;;;;10481249;28;20231;-70
2023/05/02 14:30:32;;;;;;;4.33;3.50;;;18.70;86.30;;;;;;10478400;28;20215;-71
2023/05/02 14:35:33;;;;;;;4.80;3.50;;;18.30;87.80;;;;;;10479234;28;20226;-72
2023/05/02 14:40:33;;;;;;;6.13;4.73;;;18.10;87.00;;;;;;10480614;28;20226;-74
2023/05/02 14:45:34;;;;;;;4.83;4.43;;;18.10;84.40;;;;;;10480350;28;20240;-75
2023/05/02 14:50:36;;;;;;;6.70;4.70;;;18.10;84.40;;;;;;10472955;28;20227;-73
2023/05/02 14:55:38;;;;;;;6.00;4.67;;;18.30;83.00;;;;;;10484832;28;20255;-74
2023/05/02 15:00:38;;;;;;;4.90;4.40;;;18.50;79.10;;;;;;10483729;28;20218;-72
2023/05/02 15:05:39;;;;;;;12.37;5.17;;;18.70;78.50;;;;;;10468301;28;20238;-71
2023/05/02 15:10:40;;;;;;;9.83;5.23;;;18.70;77.50;;;;;;10474408;28;20225;-72
2023/05/02 15:15:40;;;;;;;7.60;5.37;;;18.70;78.60;;;;;;10458301;28;20308;-72
2023/05/02 15:20:43;;;;;;;5.93;4.73;;;18.50;79.30;;;;;;10462225;28;20235;-72
2023/05/02 15:25:44;;;;;;;6.43;4.87;;;18.30;79.10;;;;;;10473881;28;20262;-73
2023/05/02 15:30:44;;;;;;;5.73;5.13;;;18.20;78.20;;;;;;10475796;28;20306;-72
2023/05/02 15:35:58;;;;;;;5.40;4.20;;;18.40;78.30;;;;;;10476614;28;20596;-71
2023/05/02 15:40:59;;;;;;;6.07;4.50;;;18.60;77.20;;;;;;10475289;28;20231;-71
2023/05/02 15:46:00;;;;;;;4.40;4.00;;;18.60;76.70;;;;;;10478510;28;20238;-69
2023/05/02 15:51:01;;;;;;;4.60;4.07;;;18.70;76.10;;;;;;10474384;28;20223;-71
2023/05/02 15:56:02;;;;;;;7.27;3.87;;;18.80;76.00;;;;;;10474583;28;20234;-68
2023/05/02 16:01:03;;;;;;;5.47;4.77;;;18.70;76.10;;;;;;10460883;28;20227;-71
2023/05/02 16:06:07;;;;;;;7.80;4.37;;;18.80;77.30;;;;;;10474961;28;20226;-70
2023/05/02 16:11:08;;;;;;;5.23;3.83;;;19.10;74.90;;;;;;10481873;28;20337;-68
2023/05/02 16:16:08;;;;;;;5.23;3.60;;;19.00;75.00;;;;;;10471215;28;20237;-70
2023/05/02 16:21:10;;;;;;;7.00;3.97;;;18.90;74.60;;;;;;10468004;28;20220;-71
2023/05/02 16:26:10;;;;;;;5.37;3.80;;;18.80;73.70;;;;;;10479059;28;20677;-70
2023/05/02 16:31:13;;;;;;;6.73;3.30;;;18.70;74.30;;;;;;10460179;28;20230;-70
2023/05/02 16:36:14;;;;;;;7.90;3.40;;;18.40;74.60;;;;;;10469918;28;20222;-69
2023/05/02 16:41:14;;;;;;;6.60;3.17;;;18.10;76.00;;;;;;10480653;28;20225;-70
2023/05/02 16:46:15;;;;;;;7.10;2.60;;;17.80;77.00;;;;;;10466545;28;20701;-70
2023/05/02 16:51:15;;;;;;;4.50;3.90;;;17.50;77.40;;;;;;10475991;28;20269;-69
2023/05/02 16:56:16;;;;;;;5.93;3.40;;;17.20;79.50;;;;;;10461954;28;20240;-69
2023/05/02 17:01:17;;;;;;;4.47;3.30;;;17.00;80.40;;;;;;10472742;28;20213;-70
2023/05/02 17:06:17;;;;;;;5.50;3.50;;;16.70;81.80;;;;;;10482686;28;20233;-71
2023/05/02 17:11:19;;;;;;;7.70;3.47;;;16.50;81.20;;;;;;10470113;28;20635;-69
2023/05/02 17:16:21;;;;;;;5.63;3.07;;;16.30;81.40;;;;;;10468602;28;20225;-71
2023/05/02 17:21:21;;;;;;;5.17;3.90;;;16.30;81.60;;;;;;10463052;28;20217;-70
2023/05/02 17:26:22;;;;;;;4.10;3.03;;;16.10;82.00;;;;;;10467925;28;20320;-70
2023/05/02 17:31:22;;;;;;;3.80;3.00;;;15.90;82.40;;;;;;10477229;28;20217;-69
2023/05/02 17:36:23;;;;;;;6.17;3.23;;;15.80;82.60;;;;;;10472905;28;20225;-69
2023/05/02 17:41:25;;;;;;;6.23;3.07;;;15.70;83.20;;;;;;10484896;28;20221;-69
2023/05/02 17:46:26;;;;;;;7.93;2.40;;;15.60;83.30;;;;;;10463100;28;20781;-70
2023/05/02 17:51:27;;;;;;;4.10;2.80;;;15.50;83.30;;;;;;10476849;28;20227;-69
2023/05/02 17:56:28;;;;;;;5.33;2.70;;;15.40;82.70;;;;;;10472093;28;20249;-70
2023/05/02 18:01:29;;;;;;;4.17;2.87;;;15.20;81.70;;;;;;10475627;28;20228;-70
2023/05/02 18:06:33;;;;;;;7.03;2.80;;;15.10;81.80;;;;;;10493039;28;20239;-70
2023/05/02 18:11:34;;;;;;;3.93;2.63;;;15.00;82.80;;;;;;10484444;28;20226;-69
2023/05/02 18:16:35;;;;;;;6.47;3.20;;;14.90;83.70;;;;;;10462067;28;20736;-69
2023/05/02 18:21:36;;;;;;;3.70;2.93;;;14.70;85.70;;;;;;10471145;28;20246;-69
2023/05/02 18:26:37;;;;;;;4.43;2.70;;;14.60;86.10;;;;;;10468828;28;20717;-69
2023/05/02 18:31:38;;;;;;;3.57;2.60;;;14.50;87.10;;;;;;10464383;28;20315;-70
2023/05/02 18:36:39;;;;;;;5.47;2.60;;;14.30;88.40;;;;;;10471421;28;20314;-69
2023/05/02 18:41:40;;;;;;;5.00;2.57;;;14.20;89.20;;;;;;10480043;28;20223;-69
2023/05/02 18:46:40;;;;;;;3.33;2.37;;;14.10;89.70;;;;;;10478209;28;20231;-70
2023/05/02 18:51:41;;;;;;;5.20;2.40;;;13.90;90.00;;;;;;10470576;28;20565;-69
2023/05/02 18:56:42;;;;;;;4.07;2.63;;;13.70;90.70;;;;;;10466580;28;20740;-69
2023/05/02 19:01:45;;;;;;;3.90;3.40;;;13.60;91.60;;;;;;10469883;28;20310;-68
2023/05/02 19:06:46;;;;;;;3.20;2.90;;;13.50;94.00;;;;;;10478498;28;20227;-69
2023/05/02 19:11:47;;;;;;;3.60;3.00;;;13.40;95.10;;;;;;10467670;28;20955;-69
2023/05/02 19:16:48;;;;;;;6.23;3.40;;;13.30;96.20;;;;;;10480303;28;20232;-71
2023/05/02 19:21:49;;;;;;;7.00;3.53;;;13.20;96.70;;;;;;10476488;28;20223;-69
2023/05/02 19:26:50;;;;;;;3.70;3.07;;;13.10;96.90;;;;;;10465511;28;20235;-70
2023/05/02 19:31:54;;;;;;;3.70;3.30;;;13.00;97.10;;;;;;10477348;28;20559;-71
2023/05/02 19:36:56;;;;;;;4.27;3.27;;;12.80;97.20;;;;;;10469688;28;20272;-72
2023/05/02 19:41:56;;;;;;;8.43;4.17;;;12.70;97.20;;;;;;10470457;28;20311;-73
2023/05/02 19:46:57;;;;;;;5.60;3.20;;;12.60;97.40;;;;;;10474710;28;20235;-72
2023/05/02 19:51:59;;;;;;;8.07;4.00;;;12.50;97.20;;;;;;10469260;28;20784;-74
2023/05/02 19:57:01;;;;;;;4.70;3.50;;;12.40;97.30;;;;;;10483132;28;20230;-75
2023/05/02 20:02:02;;;;;;;7.60;3.93;;;12.30;97.80;;;;;;10478236;28;20219;-74
2023/05/02 20:07:02;;;;;;;3.70;3.30;;;12.20;98.20;;;;;;10469478;28;20240;-74
2023/05/02 20:12:04;;;;;;;4.53;3.60;;;12.10;98.50;;;;;;10478699;28;20302;-75
2023/05/02 20:17:04;;;;;;;6.17;4.00;;;12.00;98.90;;;;;;10466811;28;20220;-74
2023/05/02 20:22:05;;;;;;;6.87;3.63;;;11.90;99.30;;;;;;10467053;28;20234;-76
2023/05/02 20:27:06;;;;;;;5.30;3.90;;;11.80;99.60;;;;;;10462422;28;20236;-74
2023/05/02 20:32:07;;;;;;;5.33;3.80;;;11.70;99.70;;;;;;10469382;28;20222;-76
2023/05/02 20:37:09;;;;;;;9.90;4.13;;;11.60;99.90;;;;;;10471842;28;20675;-71
2023/05/02 20:42:10;;;;;;;6.17;3.97;;;11.60;99.90;;;;;;10477422;28;20223;-75
2023/05/02 20:47:11;;;;;;;6.90;3.87;;;11.50;99.90;;;;;;10463226;28;20267;-73
2023/05/02 20:52:13;;;;;;;8.70;4.40;;;11.40;99.90;;;;;;10485115;28;20253;-73
2023/05/02 20:57:15;;;;;;;5.57;4.37;;;11.30;99.90;;;;;;10477946;28;20231;-74
2023/05/02 21:02:16;;;;;;;8.67;4.70;;;11.20;99.90;;;;;;10492669;28;20223;-74
2023/05/02 21:07:16;;;;;;;6.67;4.40;;;11.10;99.90;;;;;;10474636;28;20593;-75
2023/05/02 21:12:17;;;;;;;6.63;4.33;;;11.00;99.90;;;;;;10482696;28;20219;-71
2023/05/02 21:17:18;;;;;;;8.57;4.40;;;11.00;99.90;;;;;;10481962;28;20246;-71
2023/05/02 21:22:18;;;;;;;8.47;4.50;;;10.80;99.90;;;;;;10468708;28;20236;-71
2023/05/02 21:27:19;;;;;;;7.13;4.53;;;10.70;99.90;;;;;;10479161;28;20238;-72
2023/05/02 21:32:19;;;;;;;8.30;4.93;;;10.70;99.90;;;;;;10477640;28;20704;-72
2023/05/02 21:37:21;;;;;;;6.77;4.13;;;10.60;99.90;;;;;;10476827;28;20227;-73
2023/05/02 21:42:21;;;;;;;8.90;4.57;;;10.50;99.90;;;;;;10475318;28;20219;-72
2023/05/02 21:47:22;;;;;;;9.63;4.60;;;10.40;99.90;;;;;;10479370;28;20225;-72
2023/05/02 21:52:22;;;;;;;6.83;4.60;;;10.40;99.90;;;;;;10476089;28;20223;-72
2023/05/02 21:57:23;;;;;;;9.40;4.80;;;10.30;99.90;;;;;;10478573;28;20215;-71
2023/05/02 22:02:24;;;;;;;7.30;4.30;;;10.20;99.90;;;;;;10476245;28;20836;-70
2023/05/02 22:07:24;;;;;;;7.40;4.70;;;10.20;99.90;;;;;;10490735;28;20235;-70
2023/05/02 22:12:26;;;;;;;6.77;4.23;;;10.20;99.90;;;;;;10477095;28;20691;-71
2023/05/02 22:17:27;;;;;;;8.50;4.40;;;10.10;99.90;;;;;;10482591;28;20228;-70
2023/05/02 22:22:28;;;;;;;12.00;5.10;;;10.10;99.90;;;;;;10470757;28;20240;-73
2023/05/02 22:27:28;;;;;;;8.90;4.53;;;9.90;99.90;;;;;;10469228;28;20236;-70
2023/05/02 22:32:29;;;;;;;9.17;5.10;;;9.90;99.90;;;;;;10472394;28;20222;-70
2023/05/02 22:37:30;;;;;;;9.07;4.70;;;9.80;99.90;;;;;;10473939;28;20228;-73
2023/05/02 22:42:30;;;;;;;8.63;4.53;;;9.80;99.90;;;;;;10475196;28;20227;-73
2023/05/02 22:47:31;;;;;;;7.20;4.80;;;9.70;99.90;;;;;;10459636;28;20232;-70
2023/05/02 22:52:36;;;;;;;10.63;5.30;;;9.60;99.90;;;;;;10457467;28;20461;-69
2023/05/02 22:57:37;;;;;;;7.37;4.40;;;9.60;99.90;;;;;;10480894;28;20272;-69
2023/05/02 23:02:38;;;;;;;9.30;4.63;;;9.50;99.90;;;;;;10487541;28;20230;-69
2023/05/02 23:07:39;;;;;;;10.30;4.97;;;9.40;99.90;;;;;;10487275;28;20760;-69
2023/05/02 23:12:40;;;;;;;8.57;4.57;;;9.40;99.90;;;;;;10464118;28;20216;-69
2023/05/02 23:17:41;;;;;;;8.50;4.93;;;9.30;99.90;;;;;;10466246;28;20280;-70
2023/05/02 23:22:45;;;;;;;9.30;4.80;;;9.20;99.90;;;;;;10463045;28;20283;-70
2023/05/02 23:27:45;;;;;;;8.80;5.00;;;9.20;99.90;;;;;;10471353;28;20229;-69
2023/05/02 23:32:46;;;;;;;10.40;5.10;;;9.10;99.90;;;;;;10475936;28;20219;-68
2023/05/02 23:37:48;;;;;;;9.33;4.87;;;9.10;99.90;;;;;;10473710;28;20698;-70
2023/05/02 23:42:49;;;;;;;7.07;4.47;;;9.00;99.90;;;;;;10475004;28;20751;-69
2023/05/02 23:47:50;;;;;;;7.20;4.33;;;9.00;99.90;;;;;;10468886;28;20913;-68
2023/05/02 23:52:50;;;;;;;11.37;5.00;;;8.90;99.90;;;;;;10470660;28;20266;-68
2023/05/02 23:57:54;;;;;;;9.63;5.10;;;8.90;99.90;;;;;;10464046;28;20822;-70
